Time,TemperatureF,DewpointF,PressureIn,WindDirection,WindDirectionDegrees,WindSpeedMPH,WindSpeedGustMPH,Humidity,HourlyPrecipIn,Conditions,Clouds,dailyrainin,SoftwareType,DateUTC
2013-07-04 00:02:00,67.0,67.0,30.24,SSE,158,0.0,3.0,99,0.16,,,3.01,,2013-07-04 04:02:00,
2013-07-04 00:11:00,67.0,67.0,30.24,SSE,158,0.0,3.0,99,0.16,,,3.01,,2013-07-04 04:11:00,
2013-07-04 00:22:00,67.0,67.0,30.24,SSE,158,0.0,3.0,99,0.16,,,3.01,,2013-07-04 04:22:00,
2013-07-04 00:33:00,67.0,67.0,30.25,SE,135,1.0,3.0,99,0.19,,,3.10,,2013-07-04 04:33:00,
2013-07-04 00:43:00,67.0,67.0,30.25,SE,135,1.0,3.0,99,0.19,,,3.10,,2013-07-04 04:43:00,
2013-07-04 00:52:00,67.0,67.0,30.25,SE,135,1.0,3.0,99,0.19,,,3.10,,2013-07-04 04:52:00,
2013-07-04 01:12:00,67.0,66.0,30.24,East,90,0.0,3.0,98,0.13,,,3.04,,2013-07-04 05:12:00,
2013-07-04 01:22:00,67.0,66.0,30.24,East,90,0.0,3.0,98,0.13,,,3.04,,2013-07-04 05:22:00,
2013-07-04 01:33:00,67.0,67.0,30.25,SE,135,3.0,9.0,99,0.20,,,3.13,,2013-07-04 05:33:00,
2013-07-04 01:43:00,67.0,67.0,30.25,SE,135,3.0,9.0,99,0.20,,,3.13,,2013-07-04 05:43:00,
2013-07-04 01:52:00,67.0,67.0,30.25,SE,135,3.0,9.0,99,0.20,,,3.13,,2013-07-04 05:52:00,
2013-07-04 02:01:00,66.0,66.0,30.25,ESE,113,0.0,5.0,99,0.25,,,3.22,,2013-07-04 06:01:00,
2013-07-04 02:11:00,66.0,66.0,30.25,ESE,113,0.0,5.0,99,0.25,,,3.22,,2013-07-04 06:11:00,
2013-07-04 02:34:00,66.0,66.0,30.24,East,90,0.0,2.0,99,0.08,,,3.22,,2013-07-04 06:34:00,
2013-07-04 02:43:00,66.0,66.0,30.24,East,90,0.0,2.0,99,0.08,,,3.22,,2013-07-04 06:43:00,
2013-07-04 02:53:00,66.0,66.0,30.24,East,90,0.0,2.0,99,0.08,,,3.22,,2013-07-04 06:53:00,
2013-07-04 03:02:00,66.0,66.0,30.24,East,90,0.0,1.0,99,0.00,,,3.22,,2013-07-04 07:02:00,
2013-07-04 03:12:00,66.0,66.0,30.24,East,90,0.0,1.0,99,0.00,,,3.22,,2013-07-04 07:12:00,
2013-07-04 03:22:00,66.0,66.0,30.24,East,90,0.0,1.0,99,0.00,,,3.22,,2013-07-04 07:22:00,
2013-07-04 03:34:00,66.0,66.0,30.23,East,90,0.0,2.0,99,0.00,,,3.22,,2013-07-04 07:34:00,
2013-07-04 03:43:00,66.0,66.0,30.23,East,90,0.0,2.0,99,0.00,,,3.22,,2013-07-04 07:43:00,
2013-07-04 03:52:00,66.0,66.0,30.23,East,90,0.0,2.0,99,0.00,,,3.22,,2013-07-04 07:52:00,
2013-07-04 04:02:00,66.0,66.0,30.23,SSE,158,0.0,1.0,99,0.01,,,3.17,,2013-07-04 08:02:00,
2013-07-04 04:11:00,66.0,66.0,30.23,SSE,158,0.0,1.0,99,0.01,,,3.17,,2013-07-04 08:11:00,
2013-07-04 04:22:00,66.0,66.0,30.23,SSE,158,0.0,1.0,99,0.01,,,3.17,,2013-07-04 08:22:00,
2013-07-04 04:33:00,66.0,66.0,30.24,SE,135,0.0,2.0,100,0.14,,,3.25,,2013-07-04 08:33:00,
2013-07-04 04:42:00,66.0,66.0,30.24,SE,135,0.0,2.0,100,0.14,,,3.25,,2013-07-04 08:42:00,
2013-07-04 04:53:00,66.0,66.0,30.24,SE,135,0.0,2.0,100,0.14,,,3.25,,2013-07-04 08:53:00,
2013-07-04 05:02:00,67.0,67.0,30.23,South,180,0.0,1.0,99,0.19,,,3.32,,2013-07-04 09:02:00,
2013-07-04 05:11:00,67.0,67.0,30.23,South,180,0.0,1.0,99,0.19,,,3.32,,2013-07-04 09:11:00,
2013-07-04 05:32:00,67.0,67.0,30.24,ESE,113,0.0,2.0,99,0.11,,,3.37,,2013-07-04 09:32:00,
2013-07-04 05:42:00,67.0,67.0,30.24,ESE,113,0.0,2.0,99,0.11,,,3.37,,2013-07-04 09:42:00,
2013-07-04 05:52:00,67.0,67.0,30.24,ESE,113,0.0,2.0,99,0.11,,,3.37,,2013-07-04 09:52:00,
2013-07-04 06:01:00,67.0,67.0,30.25,ESE,113,0.0,0.0,99,0.21,,,3.52,,2013-07-04 10:01:00,
2013-07-04 06:11:00,67.0,67.0,30.25,ESE,113,0.0,0.0,99,0.21,,,3.52,,2013-07-04 10:11:00,
2013-07-04 06:22:00,67.0,67.0,30.25,ESE,113,0.0,0.0,99,0.21,,,3.52,,2013-07-04 10:22:00,
2013-07-04 06:34:00,66.0,66.0,30.26,East,90,0.0,1.0,99,0.18,,,3.55,,2013-07-04 10:34:00,
2013-07-04 06:43:00,66.0,66.0,30.26,East,90,0.0,1.0,99,0.18,,,3.55,,2013-07-04 10:43:00,
2013-07-04 06:53:00,66.0,66.0,30.26,East,90,0.0,1.0,99,0.18,,,3.55,,2013-07-04 10:53:00,
2013-07-04 07:11:00,65.0,65.0,30.26,East,90,0.0,0.0,99,0.02,,,3.55,,2013-07-04 11:11:00,
2013-07-04 07:22:00,65.0,65.0,30.26,East,90,0.0,0.0,99,0.02,,,3.55,,2013-07-04 11:22:00,
2013-07-04 07:43:00,65.0,65.0,30.27,East,90,0.0,2.0,99,0.06,,,3.60,,2013-07-04 11:43:00,
2013-07-04 07:53:00,65.0,65.0,30.27,East,90,0.0,2.0,99,0.06,,,3.60,,2013-07-04 11:53:00,
2013-07-04 08:12:00,66.0,66.0,30.27,East,90,0.0,3.0,100,0.30,,,3.85,,2013-07-04 12:12:00,
2013-07-04 08:22:00,66.0,66.0,30.27,East,90,0.0,3.0,100,0.30,,,3.85,,2013-07-04 12:22:00,
2013-07-04 08:33:00,66.0,66.0,30.27,East,90,0.0,1.0,100,0.24,,,3.81,,2013-07-04 12:33:00,
2013-07-04 08:43:00,66.0,66.0,30.27,East,90,0.0,1.0,100,0.24,,,3.81,,2013-07-04 12:43:00,
2013-07-04 08:52:00,66.0,66.0,30.27,East,90,0.0,1.0,100,0.24,,,3.81,,2013-07-04 12:52:00,
2013-07-04 09:12:00,67.0,67.0,30.28,East,90,0.0,2.0,100,0.00,,,3.80,,2013-07-04 13:12:00,
2013-07-04 09:23:00,67.0,67.0,30.28,East,90,0.0,2.0,100,0.00,,,3.80,,2013-07-04 13:23:00,
2013-07-04 09:33:00,68.0,68.0,30.28,East,90,0.0,1.0,99,0.00,,,3.80,,2013-07-04 13:33:00,
2013-07-04 09:43:00,68.0,68.0,30.28,East,90,0.0,1.0,99,0.00,,,3.80,,2013-07-04 13:43:00,
2013-07-04 09:53:00,68.0,68.0,30.28,East,90,0.0,1.0,99,0.00,,,3.80,,2013-07-04 13:53:00,
2013-07-04 10:02:00,69.0,68.0,30.28,East,90,1.0,3.0,98,0.01,,,3.81,,2013-07-04 14:02:00,
2013-07-04 10:11:00,69.0,68.0,30.28,East,90,1.0,3.0,98,0.01,,,3.81,,2013-07-04 14:11:00,
2013-07-04 10:22:00,69.0,68.0,30.28,East,90,1.0,3.0,98,0.01,,,3.81,,2013-07-04 14:22:00,
2013-07-04 10:33:00,70.0,70.0,30.27,SSE,158,1.0,3.0,99,0.03,,,3.82,,2013-07-04 14:33:00,
2013-07-04 10:43:00,70.0,70.0,30.27,SSE,158,1.0,3.0,99,0.03,,,3.82,,2013-07-04 14:43:00,
2013-07-04 10:53:00,70.0,70.0,30.27,SSE,158,1.0,3.0,99,0.03,,,3.82,,2013-07-04 14:53:00,
2013-07-04 11:02:00,70.0,68.0,30.27,SE,135,2.0,6.0,95,0.02,,,3.82,,2013-07-04 15:02:00,
2013-07-04 11:11:00,70.0,68.0,30.27,SE,135,2.0,6.0,95,0.02,,,3.82,,2013-07-04 15:11:00,
2013-07-04 11:23:00,70.0,68.0,30.27,SE,135,2.0,6.0,95,0.02,,,3.82,,2013-07-04 15:23:00,
2013-07-04 11:33:00,69.0,68.0,30.28,SSE,158,1.0,2.0,96,0.02,,,3.84,,2013-07-04 15:33:00,
2013-07-04 11:43:00,69.0,68.0,30.28,SSE,158,1.0,2.0,96,0.02,,,3.84,,2013-07-04 15:43:00,
2013-07-04 11:53:00,69.0,68.0,30.28,SSE,158,1.0,2.0,96,0.02,,,3.84,,2013-07-04 15:53:00,
2013-07-04 12:02:00,68.0,67.0,30.28,ESE,113,1.0,3.0,97,0.02,,,3.84,,2013-07-04 16:02:00,
2013-07-04 12:11:00,68.0,67.0,30.28,ESE,113,1.0,3.0,97,0.02,,,3.84,,2013-07-04 16:11:00,
2013-07-04 12:22:00,68.0,67.0,30.28,ESE,113,1.0,3.0,97,0.02,,,3.84,,2013-07-04 16:22:00,
2013-07-04 12:33:00,71.0,70.0,30.27,SE,135,0.0,2.0,98,0.00,,,3.82,,2013-07-04 16:33:00,
2013-07-04 12:43:00,71.0,70.0,30.27,SE,135,0.0,2.0,98,0.00,,,3.82,,2013-07-04 16:43:00,
2013-07-04 12:52:00,71.0,70.0,30.27,SE,135,0.0,2.0,98,0.00,,,3.82,,2013-07-04 16:52:00,
2013-07-04 13:02:00,73.0,70.0,30.27,SE,135,2.0,5.0,90,0.01,,,3.83,,2013-07-04 17:02:00,
2013-07-04 13:12:00,73.0,70.0,30.27,SE,135,2.0,5.0,90,0.01,,,3.83,,2013-07-04 17:12:00,
2013-07-04 13:22:00,73.0,70.0,30.27,SE,135,2.0,5.0,90,0.01,,,3.83,,2013-07-04 17:22:00,
2013-07-04 13:34:00,75.0,71.0,30.26,East,90,3.0,7.0,86,0.01,,,3.83,,2013-07-04 17:34:00,
2013-07-04 13:43:00,75.0,71.0,30.26,East,90,3.0,7.0,86,0.01,,,3.83,,2013-07-04 17:43:00,
2013-07-04 13:53:00,75.0,71.0,30.26,East,90,3.0,7.0,86,0.01,,,3.83,,2013-07-04 17:53:00,
2013-07-04 14:01:00,76.0,72.0,30.26,SSE,158,2.0,7.0,86,0.00,,,3.81,,2013-07-04 18:01:00,
2013-07-04 14:11:00,76.0,72.0,30.26,SSE,158,2.0,7.0,86,0.00,,,3.81,,2013-07-04 18:11:00,
2013-07-04 14:22:00,76.0,72.0,30.26,SSE,158,2.0,7.0,86,0.00,,,3.81,,2013-07-04 18:22:00,
2013-07-04 14:33:00,75.0,69.0,30.26,East,90,2.0,9.0,82,0.00,,,3.66,,2013-07-04 18:33:00,
2013-07-04 14:43:00,75.0,69.0,30.26,East,90,2.0,9.0,82,0.00,,,3.66,,2013-07-04 18:43:00,
2013-07-04 14:52:00,75.0,69.0,30.26,East,90,2.0,9.0,82,0.00,,,3.66,,2013-07-04 18:52:00,
2013-07-04 15:02:00,77.0,69.0,30.24,ENE,68,1.0,9.0,77,0.00,,,3.65,,2013-07-04 19:02:00,
2013-07-04 15:12:00,77.0,69.0,30.24,ENE,68,1.0,9.0,77,0.00,,,3.65,,2013-07-04 19:12:00,
2013-07-04 15:22:00,77.0,69.0,30.24,ENE,68,1.0,9.0,77,0.00,,,3.65,,2013-07-04 19:22:00,
2013-07-04 15:33:00,77.0,70.0,30.23,South,180,1.0,7.0,79,0.00,,,3.65,,2013-07-04 19:33:00,
2013-07-04 15:43:00,77.0,70.0,30.23,South,180,1.0,7.0,79,0.00,,,3.65,,2013-07-04 19:43:00,
2013-07-04 15:53:00,77.0,70.0,30.23,South,180,1.0,7.0,79,0.00,,,3.65,,2013-07-04 19:53:00,
2013-07-04 16:02:00,79.0,69.0,30.22,NE,45,0.0,9.0,72,0.00,,,3.65,,2013-07-04 20:02:00,
2013-07-04 16:11:00,79.0,69.0,30.22,NE,45,0.0,9.0,72,0.00,,,3.65,,2013-07-04 20:11:00,
2013-07-04 16:22:00,79.0,69.0,30.22,NE,45,0.0,9.0,72,0.00,,,3.65,,2013-07-04 20:22:00,
2013-07-04 16:34:00,79.0,70.0,30.22,SSE,158,0.0,6.0,73,0.00,,,3.56,,2013-07-04 20:34:00,
2013-07-04 16:42:00,79.0,70.0,30.22,SSE,158,0.0,6.0,73,0.00,,,3.56,,2013-07-04 20:42:00,
2013-07-04 16:53:00,79.0,70.0,30.22,SSE,158,0.0,6.0,73,0.00,,,3.56,,2013-07-04 20:53:00,
2013-07-04 17:01:00,79.0,68.0,30.22,ESE,113,1.0,5.0,70,0.00,,,3.51,,2013-07-04 21:01:00,
2013-07-04 17:11:00,79.0,68.0,30.22,ESE,113,1.0,5.0,70,0.00,,,3.51,,2013-07-04 21:11:00,
2013-07-04 17:22:00,79.0,68.0,30.22,ESE,113,1.0,5.0,70,0.00,,,3.51,,2013-07-04 21:22:00,
2013-07-04 17:32:00,78.0,71.0,30.22,ESE,113,2.0,9.0,78,0.01,,,3.48,,2013-07-04 21:32:00,
2013-07-04 17:43:00,78.0,71.0,30.22,ESE,113,2.0,9.0,78,0.01,,,3.48,,2013-07-04 21:43:00,
2013-07-04 17:53:00,78.0,71.0,30.22,ESE,113,2.0,9.0,78,0.01,,,3.48,,2013-07-04 21:53:00,
2013-07-04 18:02:00,73.0,70.0,30.23,ENE,68,1.0,6.0,89,0.10,,,3.57,,2013-07-04 22:02:00,
2013-07-04 18:12:00,73.0,70.0,30.23,ENE,68,1.0,6.0,89,0.10,,,3.57,,2013-07-04 22:12:00,
2013-07-04 18:22:00,73.0,70.0,30.23,ENE,68,1.0,6.0,89,0.10,,,3.57,,2013-07-04 22:22:00,
2013-07-04 18:33:00,73.0,70.0,30.22,ESE,113,0.0,7.0,90,0.09,,,3.49,,2013-07-04 22:33:00,
2013-07-04 18:43:00,73.0,70.0,30.22,ESE,113,0.0,7.0,90,0.09,,,3.49,,2013-07-04 22:43:00,
2013-07-04 18:52:00,73.0,70.0,30.22,ESE,113,0.0,7.0,90,0.09,,,3.49,,2013-07-04 22:52:00,
2013-07-04 19:01:00,72.0,70.0,30.22,SE,135,0.0,3.0,92,0.00,,,2.83,,2013-07-04 23:01:00,
2013-07-04 19:12:00,72.0,70.0,30.22,SE,135,0.0,3.0,92,0.00,,,2.83,,2013-07-04 23:12:00,
2013-07-04 19:23:00,72.0,70.0,30.22,SE,135,0.0,3.0,92,0.00,,,2.83,,2013-07-04 23:23:00,
2013-07-04 19:33:00,72.0,68.0,30.22,ENE,68,1.0,8.0,88,0.00,,,2.55,,2013-07-04 23:33:00,
2013-07-04 19:43:00,72.0,68.0,30.22,ENE,68,1.0,8.0,88,0.00,,,2.55,,2013-07-04 23:43:00,
2013-07-04 19:52:00,72.0,68.0,30.22,ENE,68,1.0,8.0,88,0.00,,,2.55,,2013-07-04 23:52:00,
2013-07-04 20:01:00,69.0,67.0,30.23,SSE,158,0.0,3.0,94,0.03,,,2.01,,2013-07-05 00:01:00,
2013-07-04 20:11:00,69.0,67.0,30.23,SSE,158,0.0,3.0,94,0.03,,,2.01,,2013-07-05 00:11:00,
2013-07-04 20:22:00,69.0,67.0,30.23,SSE,158,0.0,3.0,94,0.03,,,2.01,,2013-07-05 00:22:00,
2013-07-04 20:32:00,69.0,68.0,30.22,SE,135,0.0,2.0,96,0.03,,,1.66,,2013-07-05 00:32:00,
2013-07-04 20:43:00,69.0,68.0,30.22,SE,135,0.0,2.0,96,0.03,,,1.66,,2013-07-05 00:43:00,
2013-07-04 20:52:00,69.0,68.0,30.22,SE,135,0.0,2.0,96,0.03,,,1.66,,2013-07-05 00:52:00,
2013-07-04 21:01:00,68.0,67.0,30.23,SSE,158,0.0,2.0,97,0.00,,,1.58,,2013-07-05 01:01:00,
2013-07-04 21:11:00,68.0,67.0,30.23,SSE,158,0.0,2.0,97,0.00,,,1.58,,2013-07-05 01:11:00,
2013-07-04 21:22:00,68.0,67.0,30.23,SSE,158,0.0,2.0,97,0.00,,,1.58,,2013-07-05 01:22:00,
2013-07-04 21:32:00,68.0,67.0,30.23,SSE,158,0.0,2.0,97,0.00,,,1.58,,2013-07-05 01:32:00,
2013-07-04 21:42:00,68.0,67.0,30.23,SSE,158,0.0,2.0,97,0.00,,,1.58,,2013-07-05 01:42:00,
2013-07-04 22:02:00,68.0,67.0,30.24,ESE,113,0.0,5.0,98,0.12,,,1.59,,2013-07-05 02:02:00,
2013-07-04 22:11:00,68.0,67.0,30.24,ESE,113,0.0,5.0,98,0.12,,,1.59,,2013-07-05 02:11:00,
2013-07-04 22:22:00,68.0,67.0,30.24,ESE,113,0.0,5.0,98,0.12,,,1.59,,2013-07-05 02:22:00,
2013-07-04 22:32:00,68.0,67.0,30.24,ESE,113,0.0,5.0,98,0.12,,,1.59,,2013-07-05 02:32:00,
2013-07-04 22:42:00,68.0,67.0,30.24,ESE,113,0.0,5.0,98,0.12,,,1.59,,2013-07-05 02:42:00,
2013-07-04 22:50:00,67.0,66.0,30.24,SE,135,0.0,2.0,98,0.01,,,1.60,,2013-07-05 02:50:00,
2013-07-04 23:02:00,67.0,66.0,30.24,SE,135,0.0,2.0,98,0.01,,,1.60,,2013-07-05 03:02:00,
2013-07-04 23:11:00,67.0,66.0,30.24,SE,135,0.0,2.0,98,0.01,,,1.60,,2013-07-05 03:11:00,
2013-07-04 23:22:00,67.0,66.0,30.24,SE,135,0.0,2.0,98,0.01,,,1.60,,2013-07-05 03:22:00,
2013-07-04 23:33:00,67.0,66.0,30.24,SE,135,0.0,2.0,98,0.01,,,1.60,,2013-07-05 03:33:00,
2013-07-04 23:42:00,67.0,66.0,30.24,SE,135,0.0,2.0,98,0.01,,,1.60,,2013-07-05 03:42:00,
2013-07-04 23:53:00,68.0,67.0,30.23,ESE,113,1.0,6.0,98,0.07,,,1.54,,2013-07-05 03:53:00,